Time;durP1;ratioP1;P1;durP2;ratioP2;P2;SDS_P1;SDS_P2;PMS_P1;PMS_P2;Temp;Humidity;BMP_temperature;BMP_pressure;BME280_temperature;BME280_humidity;BME280_pressure;Samples;Min_cycle;Max_cycle;Signal;HPM_P1;HPM_P2
2023/08/31 00:00:23;;;;;;;12.57;8.67;;;16.50;99.90;;;;;;6105289;23;20710;-80
2023/08/31 00:03:00;;;;;;;15.03;8.63;;;16.50;99.90;;;;;;6129205;23;20175;-80
2023/08/31 00:05:43;;;;;;;13.37;8.27;;;16.50;99.90;;;;;;6128968;23;20635;-80
2023/08/31 00:08:25;;;;;;;13.43;8.90;;;16.40;99.90;;;;;;6103581;23;20234;-81
2023/08/31 00:11:07;;;;;;;11.57;8.30;;;16.30;99.90;;;;;;6126310;23;20191;-82
2023/08/31 00:13:40;;;;;;;13.60;8.40;;;16.40;99.90;;;;;;6151444;23;20203;-81
2023/08/31 00:16:10;;;;;;;13.03;8.30;;;16.40;99.90;;;;;;6199249;23;20167;-82
2023/08/31 00:18:49;;;;;;;13.13;7.87;;;16.40;99.90;;;;;;6211236;23;20194;-80
2023/08/31 00:21:32;;;;;;;12.70;7.53;;;16.40;99.90;;;;;;6189688;23;20186;-80
2023/08/31 00:24:15;;;;;;;10.53;7.60;;;16.30;99.90;;;;;;6191679;23;20171;-78
2023/08/31 00:26:57;;;;;;;10.70;7.33;;;16.30;99.90;;;;;;6187906;23;20177;-80
2023/08/31 00:29:36;;;;;;;10.50;7.10;;;16.30;99.90;;;;;;6186623;23;20607;-80
2023/08/31 00:32:15;;;;;;;9.83;6.73;;;16.30;99.90;;;;;;6188517;23;20206;-80
2023/08/31 00:34:55;;;;;;;9.20;7.10;;;16.40;99.90;;;;;;6190556;23;20218;-79
2023/08/31 00:37:28;;;;;;;9.03;6.47;;;16.40;99.90;;;;;;6189167;23;20240;-81
2023/08/31 00:40:13;;;;;;;8.03;6.07;;;16.40;99.90;;;;;;6188256;23;20177;-82
2023/08/31 00:42:51;;;;;;;7.80;6.20;;;16.40;99.90;;;;;;6212775;23;20637;-80
2023/08/31 00:45:33;;;;;;;8.73;6.30;;;16.40;99.90;;;;;;6191146;23;20213;-79
2023/08/31 00:48:17;;;;;;;8.00;6.17;;;16.30;99.90;;;;;;6207638;23;20199;-81
2023/08/31 00:50:52;;;;;;;9.50;6.23;;;16.20;99.90;;;;;;6212340;23;20193;-79
2023/08/31 00:53:29;;;;;;;8.77;6.10;;;16.30;99.90;;;;;;6188418;23;20166;-78
2023/08/31 01:05:10;;;;;;;8.93;5.60;;;16.30;99.90;;;;;;5980365;23;20219;-81
2023/08/31 01:08:23;;;;;;;8.63;5.40;;;16.30;99.90;;;;;;6003796;23;20183;-80
2023/08/31 01:11:24;;;;;;;8.40;5.57;;;16.20;99.90;;;;;;5984492;23;20176;-81
2023/08/31 01:14:28;;;;;;;8.10;5.53;;;16.30;99.90;;;;;;5982793;23;20517;-81
2023/08/31 01:17:28;;;;;;;9.03;5.57;;;16.20;99.90;;;;;;5982102;23;20178;-80
2023/08/31 01:20:20;;;;;;;9.90;6.17;;;16.10;99.90;;;;;;5962679;23;20283;-80
2023/08/31 01:23:41;;;;;;;7.20;5.20;;;16.20;99.90;;;;;;5986963;23;20623;-80
2023/08/31 01:26:48;;;;;;;7.50;5.43;;;16.10;99.90;;;;;;5924892;24;20233;-80
2023/08/31 01:29:39;;;;;;;6.30;5.20;;;16.20;99.90;;;;;;5904058;24;20161;-80
2023/08/31 01:32:31;;;;;;;13.00;6.03;;;16.20;99.90;;;;;;5878422;24;20253;-82
2023/08/31 01:38:24;;;;;;;9.10;6.00;;;16.10;99.90;;;;;;5934996;24;20160;-83
2023/08/31 01:41:15;;;;;;;8.53;5.60;;;16.10;99.90;;;;;;5994966;23;20604;-82
2023/08/31 01:44:22;;;;;;;8.20;5.43;;;16.10;99.90;;;;;;6030658;23;20182;-82
2023/08/31 01:47:25;;;;;;;11.10;6.00;;;16.20;99.90;;;;;;6006750;23;20210;-82
2023/08/31 01:50:24;;;;;;;8.80;5.40;;;16.30;99.90;;;;;;6067796;23;20621;-82
2023/08/31 01:53:44;;;;;;;8.87;6.00;;;16.10;99.90;;;;;;6090335;23;20260;-82
2023/08/31 01:56:51;;;;;;;8.13;5.97;;;16.20;99.90;;;;;;6066941;23;20174;-81
2023/08/31 02:00:11;;;;;;;9.10;5.90;;;16.10;99.90;;;;;;6010246;23;20180;-80
2023/08/31 02:03:48;;;;;;;;;;;;;;;;;;;;;
2023/08/31 02:07:09;;;;;;;9.00;6.33;;;16.00;99.90;;;;;;6117861;23;20279;-83
2023/08/31 02:10:29;;;;;;;7.57;5.97;;;16.00;99.90;;;;;;6120517;23;20232;-82
2023/08/31 02:13:36;;;;;;;9.20;6.27;;;16.00;99.90;;;;;;6015503;23;20713;-82
2023/08/31 02:16:34;;;;;;;8.50;5.87;;;16.00;99.90;;;;;;6014638;23;20187;-82
2023/08/31 02:19:21;;;;;;;8.63;6.27;;;15.90;99.90;;;;;;6015898;23;20189;-81
2023/08/31 02:22:21;;;;;;;9.33;6.83;;;15.90;99.90;;;;;;5957682;24;20196;-82
2023/08/31 02:25:17;;;;;;;8.63;6.27;;;15.90;99.90;;;;;;5952587;24;20177;-83
2023/08/31 02:28:12;;;;;;;8.70;6.50;;;15.90;99.90;;;;;;5954844;24;20181;-82
2023/08/31 02:31:13;;;;;;;10.80;6.33;;;15.80;99.90;;;;;;5955022;24;20236;-84
2023/08/31 02:34:09;;;;;;;7.80;5.97;;;15.80;99.90;;;;;;5977179;24;20291;-82
2023/08/31 02:37:25;;;;;;;9.80;6.27;;;15.80;99.90;;;;;;5938749;24;20208;-80
2023/08/31 02:43:41;;;;;;;7.30;5.87;;;15.90;99.90;;;;;;5842472;24;20423;-83
2023/08/31 02:46:49;;;;;;;9.20;5.83;;;15.80;99.90;;;;;;5850658;24;20179;-80
2023/08/31 02:49:43;;;;;;;8.63;5.70;;;15.80;99.90;;;;;;5869549;24;20185;-82
2023/08/31 02:52:39;;;;;;;7.03;5.57;;;15.80;99.90;;;;;;5885048;24;20213;-82
2023/08/31 02:55:46;;;;;;;6.67;5.40;;;15.80;99.90;;;;;;5930464;23;20198;-82
2023/08/31 02:58:37;;;;;;;9.17;6.10;;;15.80;99.90;;;;;;6025657;23;20685;-83
2023/08/31 03:01:15;;;;;;;7.40;5.90;;;15.90;99.90;;;;;;6035522;23;20258;-78
2023/08/31 03:04:21;;;;;;;6.43;5.33;;;15.80;99.90;;;;;;6035321;23;20234;-80
2023/08/31 03:07:06;;;;;;;7.33;5.10;;;15.80;99.90;;;;;;6036955;23;20199;-81
2023/08/31 03:09:55;;;;;;;8.60;5.37;;;15.80;99.90;;;;;;5989998;23;20188;-80
2023/08/31 03:12:36;;;;;;;7.53;5.53;;;15.80;99.90;;;;;;6036010;23;20179;-80
2023/08/31 03:15:19;;;;;;;8.07;5.53;;;15.80;99.90;;;;;;6036119;23;20239;-82
2023/08/31 03:18:28;;;;;;;6.50;5.20;;;15.80;99.90;;;;;;6015393;23;20175;-83
2023/08/31 03:21:34;;;;;;;7.20;5.50;;;15.80;99.90;;;;;;6187581;23;20250;-81
2023/08/31 03:24:16;;;;;;;9.43;5.97;;;15.80;99.90;;;;;;6166555;23;20206;-82
2023/08/31 03:27:03;;;;;;;12.60;6.30;;;15.80;99.90;;;;;;6165328;23;20181;-82
2023/08/31 03:30:03;;;;;;;9.40;6.40;;;15.70;99.90;;;;;;6195148;23;20178;-82
2023/08/31 03:32:49;;;;;;;10.20;6.23;;;15.60;99.90;;;;;;6163936;23;20174;-79
2023/08/31 03:35:26;;;;;;;8.47;6.80;;;15.50;99.90;;;;;;6214880;23;20206;-80
2023/08/31 03:38:18;;;;;;;;;;;;;;;;;;;;;
2023/08/31 03:41:03;;;;;;;9.07;6.47;;;15.50;99.90;;;;;;6211751;23;20171;-80
2023/08/31 03:44:01;;;;;;;8.70;6.77;;;15.50;99.90;;;;;;6164985;23;20162;-81
2023/08/31 03:46:47;;;;;;;8.00;6.70;;;15.40;99.90;;;;;;6127060;23;20505;-82
2023/08/31 03:49:35;;;;;;;8.03;6.20;;;15.40;99.90;;;;;;6128883;23;20467;-80
2023/08/31 03:52:29;;;;;;;9.70;6.17;;;15.40;99.90;;;;;;6151039;23;20223;-82
2023/08/31 03:55:23;;;;;;;8.87;6.20;;;15.50;99.90;;;;;;6103511;23;20200;-83
2023/08/31 03:58:34;;;;;;;9.27;6.07;;;15.40;99.90;;;;;;6105774;23;20182;-81
2023/08/31 04:01:45;;;;;;;8.17;5.87;;;15.30;99.90;;;;;;6124619;23;20182;-83
2023/08/31 04:04:34;;;;;;;9.47;5.77;;;15.40;99.90;;;;;;6102708;23;20180;-80
2023/08/31 04:07:14;;;;;;;7.23;5.93;;;15.40;99.90;;;;;;6104401;23;20239;-80
2023/08/31 04:09:44;;;;;;;8.87;5.90;;;15.40;99.90;;;;;;6152360;23;20476;-81
2023/08/31 04:12:34;;;;;;;6.67;5.27;;;15.40;99.90;;;;;;6104233;23;20215;-79
2023/08/31 04:15:27;;;;;;;7.43;6.00;;;15.40;99.90;;;;;;6103432;23;20191;-82
2023/08/31 04:18:15;;;;;;;7.53;5.80;;;15.40;99.90;;;;;;6148389;23;20479;-82
2023/08/31 04:21:05;;;;;;;8.53;6.30;;;15.40;99.90;;;;;;6163008;23;20250;-81
2023/08/31 04:23:46;;;;;;;10.63;5.60;;;15.30;99.90;;;;;;6185447;23;20186;-81
2023/08/31 04:26:18;;;;;;;8.23;5.87;;;15.30;99.90;;;;;;6183231;23;20641;-80
2023/08/31 04:28:48;;;;;;;9.00;6.33;;;15.30;99.90;;;;;;6183447;23;20164;-79
2023/08/31 04:31:20;;;;;;;8.90;6.13;;;15.30;99.90;;;;;;6158319;23;20540;-79
2023/08/31 04:33:53;;;;;;;9.10;6.10;;;15.30;99.90;;;;;;6183648;23;20163;-79
2023/08/31 04:36:23;;;;;;;7.23;5.93;;;15.30;99.90;;;;;;6184965;23;20198;-80
2023/08/31 04:38:53;;;;;;;7.43;6.00;;;15.20;99.90;;;;;;6184311;23;20182;-81
2023/08/31 04:41:23;;;;;;;6.40;5.43;;;15.50;99.90;;;;;;6185254;23;20163;-79
2023/08/31 04:43:59;;;;;;;7.10;5.40;;;15.40;99.90;;;;;;6158409;23;20399;-81
2023/08/31 04:46:27;;;;;;;7.47;5.23;;;15.40;99.90;;;;;;6158434;23;20171;-81
2023/08/31 04:48:56;;;;;;;9.00;5.53;;;15.30;99.90;;;;;;6208800;23;20203;-80
2023/08/31 04:51:33;;;;;;;7.67;5.73;;;15.30;99.90;;;;;;6214699;23;20194;-80
2023/08/31 04:54:09;;;;;;;9.43;5.70;;;15.30;99.90;;;;;;6212895;23;20189;-79
2023/08/31 04:56:45;;;;;;;8.60;5.20;;;15.40;99.90;;;;;;6212916;23;20185;-80
2023/08/31 04:59:16;;;;;;;7.40;5.53;;;15.50;99.90;;;;;;6213806;23;20256;-81
2023/08/31 05:01:53;;;;;;;6.87;5.03;;;15.50;99.90;;;;;;6189611;23;20205;-81
2023/08/31 05:04:23;;;;;;;7.53;5.17;;;15.40;99.90;;;;;;6213256;23;20206;-80
2023/08/31 05:06:53;;;;;;;6.63;4.90;;;15.50;99.90;;;;;;6213102;23;20237;-80
2023/08/31 05:09:26;;;;;;;6.23;4.90;;;15.50;99.90;;;;;;6214393;23;20163;-80
2023/08/31 05:12:08;;;;;;;8.50;5.23;;;15.60;99.90;;;;;;6212275;23;20194;-80
2023/08/31 05:14:42;;;;;;;6.83;5.30;;;15.60;99.90;;;;;;6212136;23;20190;-80
2023/08/31 05:17:21;;;;;;;7.07;5.27;;;15.60;99.90;;;;;;6212000;23;20180;-79
2023/08/31 05:19:59;;;;;;;6.83;4.87;;;15.60;99.90;;;;;;6214155;23;20202;-80
2023/08/31 05:22:31;;;;;;;5.83;4.70;;;15.70;99.90;;;;;;6212387;23;20176;-80
2023/08/31 05:25:13;;;;;;;7.57;5.33;;;15.70;99.90;;;;;;6210146;23;20183;-79
2023/08/31 05:27:46;;;;;;;8.23;4.97;;;15.90;99.90;;;;;;6212256;23;20182;-81
2023/08/31 05:30:17;;;;;;;7.10;5.33;;;16.00;99.90;;;;;;6187260;23;20178;-80
2023/08/31 05:32:47;;;;;;;6.00;4.40;;;16.00;99.90;;;;;;6188022;23;20177;-80
2023/08/31 05:35:21;;;;;;;6.53;4.40;;;16.00;99.90;;;;;;6213935;23;20198;-81
2023/08/31 05:37:55;;;;;;;5.80;4.30;;;16.10;99.90;;;;;;6212565;23;20154;-79
2023/08/31 05:40:35;;;;;;;6.47;4.80;;;16.20;99.90;;;;;;6190793;23;20187;-80
2023/08/31 05:43:09;;;;;;;6.87;4.10;;;16.10;99.90;;;;;;6187501;23;20556;-80
2023/08/31 05:46:05;;;;;;;;;;;;;;;;;;;;;
2023/08/31 05:49:20;;;;;;;6.13;4.23;;;16.20;99.90;;;;;;6145800;23;20204;-81
2023/08/31 05:52:10;;;;;;;5.97;3.87;;;16.10;99.90;;;;;;6018087;23;20198;-80
2023/08/31 05:55:00;;;;;;;7.63;4.47;;;16.10;99.90;;;;;;6036427;23;20259;-80
2023/08/31 05:57:47;;;;;;;6.80;3.90;;;16.10;99.90;;;;;;6015879;23;20178;-81
2023/08/31 06:00:35;;;;;;;6.27;4.37;;;16.10;99.90;;;;;;6017146;23;20622;-80
2023/08/31 06:03:40;;;;;;;5.57;4.00;;;16.00;99.90;;;;;;6048951;23;20182;-81
2023/08/31 06:06:29;;;;;;;5.20;4.30;;;16.00;99.90;;;;;;6063125;23;20199;-81
2023/08/31 06:09:21;;;;;;;6.20;4.20;;;16.10;99.90;;;;;;6043476;23;20206;-81
2023/08/31 06:11:54;;;;;;;4.60;3.40;;;16.10;99.90;;;;;;6063203;23;20184;-79
2023/08/31 06:14:31;;;;;;;4.43;3.23;;;16.20;99.90;;;;;;6038962;23;20174;-81
2023/08/31 06:17:11;;;;;;;4.60;3.00;;;16.30;99.90;;;;;;6017940;23;20162;-81
2023/08/31 06:20:16;;;;;;;5.13;2.87;;;16.40;99.90;;;;;;6052870;23;20554;-81
2023/08/31 06:23:01;;;;;;;4.77;2.50;;;16.50;99.90;;;;;;6101014;23;20543;-83
2023/08/31 06:26:02;;;;;;;4.17;2.50;;;16.60;99.90;;;;;;6096008;23;20611;-81
2023/08/31 06:28:40;;;;;;;3.83;2.17;;;16.70;99.90;;;;;;6075220;23;20184;-82
2023/08/31 06:31:36;;;;;;;4.33;2.30;;;16.80;99.90;;;;;;5981420;23;20191;-81
2023/08/31 06:34:09;;;;;;;4.90;2.20;;;16.90;99.90;;;;;;5961938;23;20175;-82
2023/08/31 06:36:58;;;;;;;5.17;2.47;;;16.80;99.90;;;;;;5978544;23;20213;-83
2023/08/31 06:40:09;;;;;;;5.73;2.30;;;16.90;99.90;;;;;;5957063;23;20235;-82
2023/08/31 06:42:57;;;;;;;3.40;2.10;;;16.80;99.90;;;;;;5987976;23;20176;-78
2023/08/31 06:45:40;;;;;;;5.80;2.10;;;16.60;99.90;;;;;;5984900;23;20175;-82
2023/08/31 06:49:10;;;;;;;5.57;2.10;;;16.90;99.90;;;;;;5953547;24;20381;-83
2023/08/31 06:51:54;;;;;;;3.47;1.90;;;17.00;99.90;;;;;;5993655;23;20208;-80
2023/08/31 06:54:35;;;;;;;5.50;2.10;;;17.20;99.90;;;;;;5979387;24;20196;-80
2023/08/31 06:57:10;;;;;;;2.77;2.03;;;17.20;99.90;;;;;;6001590;23;20207;-81
2023/08/31 06:59:38;;;;;;;3.83;2.30;;;17.30;99.90;;;;;;5956390;23;20180;-80
2023/08/31 07:02:19;;;;;;;4.13;1.97;;;17.20;99.90;;;;;;5975787;24;20180;-81
2023/08/31 07:04:52;;;;;;;4.23;2.40;;;17.20;99.90;;;;;;5980149;23;20183;-80
2023/08/31 07:07:23;;;;;;;3.20;2.50;;;17.00;99.90;;;;;;5978635;24;20180;-81
2023/08/31 07:09:52;;;;;;;3.77;2.27;;;17.10;99.90;;;;;;5979346;24;20263;-80
2023/08/31 07:12:27;;;;;;;3.33;2.57;;;17.20;99.90;;;;;;5978391;23;20192;-80
2023/08/31 07:15:05;;;;;;;3.87;2.63;;;17.40;99.90;;;;;;5955690;24;20232;-80
2023/08/31 07:17:39;;;;;;;4.90;2.53;;;17.40;99.90;;;;;;5979386;24;20263;-78
2023/08/31 07:20:44;;;;;;;3.90;2.50;;;17.30;99.90;;;;;;5978749;24;20187;-80
2023/08/31 07:23:12;;;;;;;2.73;2.07;;;17.10;99.90;;;;;;5979415;24;20167;-80
2023/08/31 07:25:51;;;;;;;3.73;2.00;;;17.20;99.90;;;;;;5955610;24;20263;-80
2023/08/31 07:28:39;;;;;;;4.50;2.37;;;17.20;99.90;;;;;;5979399;24;20179;-80
2023/08/31 07:31:12;;;;;;;2.70;1.80;;;17.30;99.90;;;;;;5979329;24;20176;-79
2023/08/31 07:34:06;;;;;;;7.30;2.60;;;17.40;99.90;;;;;;5953479;24;20177;-84
2023/08/31 07:36:34;;;;;;;2.93;1.87;;;17.40;99.90;;;;;;5978598;24;20222;-80
2023/08/31 07:39:13;;;;;;;3.47;2.10;;;17.40;99.90;;;;;;5978672;24;20180;-82
2023/08/31 07:41:43;;;;;;;4.50;2.13;;;17.40;99.90;;;;;;5979276;24;20214;-81
2023/08/31 07:44:14;;;;;;;3.17;1.90;;;17.50;99.90;;;;;;6002197;23;20172;-79
2023/08/31 07:46:50;;;;;;;3.17;2.23;;;17.40;99.90;;;;;;5978852;24;20180;-78
2023/08/31 07:49:19;;;;;;;2.40;2.00;;;17.60;99.90;;;;;;5928204;24;20181;-79
2023/08/31 07:51:47;;;;;;;2.47;2.07;;;17.80;99.90;;;;;;5982540;23;20638;-78
2023/08/31 07:54:25;;;;;;;5.07;1.93;;;17.90;99.90;;;;;;6006723;23;20204;-78
2023/08/31 07:56:56;;;;;;;4.53;2.20;;;17.70;99.90;;;;;;6006736;23;20647;-79
2023/08/31 07:59:27;;;;;;;7.27;2.10;;;17.90;99.90;;;;;;6045468;23;20167;-79
2023/08/31 08:01:55;;;;;;;4.80;1.93;;;18.00;99.90;;;;;;6184027;23;20599;-80
2023/08/31 08:04:27;;;;;;;2.50;1.80;;;18.10;99.90;;;;;;6184393;23;20451;-80
2023/08/31 08:09:36;;;;;;;3.97;2.07;;;18.30;99.90;;;;;;6188388;22;20214;-76
2023/08/31 08:12:08;;;;;;;2.10;1.70;;;18.60;99.90;;;;;;6214125;23;20159;-80
2023/08/31 08:14:38;;;;;;;2.93;1.70;;;18.80;99.90;;;;;;6214115;23;20189;-81
2023/08/31 08:17:11;;;;;;;3.13;1.90;;;18.80;99.90;;;;;;6187412;23;20186;-79
2023/08/31 08:19:43;;;;;;;2.20;1.73;;;18.90;99.90;;;;;;6187210;23;20165;-80
2023/08/31 08:25:13;;;;;;;2.93;1.50;;;19.70;99.90;;;;;;6213282;23;20170;-80
2023/08/31 08:27:53;;;;;;;1.70;1.47;;;20.60;99.90;;;;;;6163462;23;20209;-81
2023/08/31 08:30:25;;;;;;;1.73;1.57;;;21.30;99.90;;;;;;6210039;23;20178;-81
2023/08/31 08:33:05;;;;;;;3.53;1.50;;;21.30;99.90;;;;;;6162943;23;20557;-82
2023/08/31 08:35:38;;;;;;;1.60;1.33;;;21.10;99.90;;;;;;6186694;23;20286;-79
2023/08/31 08:38:22;;;;;;;3.43;1.57;;;20.90;99.90;;;;;;6208158;23;20595;-78
2023/08/31 08:40:56;;;;;;;3.10;1.60;;;20.80;99.90;;;;;;6212864;23;20174;-83
2023/08/31 08:43:48;;;;;;;2.83;1.47;;;20.70;99.90;;;;;;6184182;23;20163;-79
2023/08/31 08:47:05;;;;;;;2.33;1.50;;;20.50;99.90;;;;;;6147626;23;20175;-82
2023/08/31 08:58:03;;;;;;;2.77;1.70;;;21.10;99.90;;;;;;6179817;23;20515;-80
2023/08/31 09:00:33;;;;;;;5.13;1.80;;;21.30;99.90;;;;;;6213727;23;20163;-81
2023/08/31 09:03:03;;;;;;;6.73;2.20;;;21.50;99.90;;;;;;6187010;23;20250;-78
2023/08/31 09:05:33;;;;;;;2.20;1.40;;;21.70;99.90;;;;;;6213763;23;20575;-80
2023/08/31 09:08:05;;;;;;;1.93;1.40;;;21.40;99.90;;;;;;6213207;23;20167;-81
2023/08/31 09:10:40;;;;;;;2.17;1.27;;;21.40;99.90;;;;;;6186770;23;20258;-80
2023/08/31 09:13:17;;;;;;;3.87;1.80;;;21.60;99.90;;;;;;6214472;23;20282;-79
2023/08/31 09:16:01;;;;;;;2.30;1.50;;;21.30;99.90;;;;;;6213621;23;20218;-80
2023/08/31 09:18:32;;;;;;;2.47;1.30;;;21.10;99.90;;;;;;6163693;23;20170;-79
2023/08/31 09:21:00;;;;;;;3.10;1.40;;;21.10;99.90;;;;;;6214237;23;20548;-78
2023/08/31 09:23:34;;;;;;;2.43;1.50;;;21.10;99.90;;;;;;6187605;23;20236;-80
2023/08/31 09:26:05;;;;;;;4.53;1.87;;;21.00;99.90;;;;;;6212910;23;20156;-79
2023/08/31 09:28:46;;;;;;;3.00;1.60;;;20.70;99.90;;;;;;6190759;23;20209;-81
2023/08/31 09:31:31;;;;;;;3.40;1.50;;;20.70;99.90;;;;;;6187788;23;20226;-79
2023/08/31 09:34:05;;;;;;;1.70;1.50;;;20.70;99.90;;;;;;6187590;23;20177;-80
2023/08/31 09:36:33;;;;;;;3.73;1.80;;;20.60;99.90;;;;;;6213636;23;20190;-80
2023/08/31 09:39:04;;;;;;;4.10;1.70;;;20.60;99.90;;;;;;6214190;23;20175;-83
2023/08/31 09:41:56;;;;;;;2.37;1.53;;;20.90;99.90;;;;;;6191688;23;20170;-81
2023/08/31 09:44:24;;;;;;;3.10;1.70;;;21.20;99.90;;;;;;6188060;23;20182;-82
2023/08/31 09:46:55;;;;;;;2.70;1.60;;;21.40;99.90;;;;;;6187322;23;20186;-82
2023/08/31 09:49:25;;;;;;;4.27;1.70;;;21.60;99.90;;;;;;6214704;23;20556;-82
2023/08/31 09:51:58;;;;;;;9.60;2.07;;;21.90;99.90;;;;;;6187472;23;20698;-81
2023/08/31 09:54:28;;;;;;;5.47;2.20;;;22.60;99.90;;;;;;6186927;23;20178;-82
2023/08/31 09:57:02;;;;;;;4.07;2.10;;;23.00;99.90;;;;;;6159127;23;20187;-83
2023/08/31 09:59:34;;;;;;;2.90;1.70;;;23.30;99.90;;;;;;6073305;23;20186;-82
2023/08/31 10:02:27;;;;;;;3.77;2.13;;;23.70;99.90;;;;;;6095428;23;20184;-85
2023/08/31 10:05:01;;;;;;;3.37;1.90;;;23.60;99.90;;;;;;6070034;23;20181;-81
2023/08/31 10:07:35;;;;;;;4.57;2.15;;;23.40;99.90;;;;;;6121488;23;20173;-79
2023/08/31 10:10:28;;;;;;;3.78;1.75;;;23.50;99.90;;;;;;6101886;23;20176;-82
2023/08/31 10:13:12;;;;;;;6.32;1.88;;;23.70;99.90;;;;;;6100676;23;20157;-84
2023/08/31 10:15:54;;;;;;;2.83;1.90;;;24.10;99.90;;;;;;6096812;23;20184;-86
2023/08/31 10:18:42;;;;;;;4.10;2.10;;;23.90;99.90;;;;;;6198098;23;20170;-80
2023/08/31 10:25:04;;;;;;;3.33;1.90;;;23.60;99.90;;;;;;6214290;23;20171;-83
2023/08/31 10:27:47;;;;;;;3.13;2.20;;;23.20;99.90;;;;;;6213155;23;20183;-81
2023/08/31 10:30:29;;;;;;;2.97;1.90;;;23.40;99.90;;;;;;6212916;23;20171;-81
2023/08/31 10:33:11;;;;;;;2.50;2.00;;;23.70;99.90;;;;;;6214409;23;20221;-80
2023/08/31 10:35:48;;;;;;;2.58;1.88;;;24.00;99.90;;;;;;6213228;23;20187;-80
2023/08/31 10:38:33;;;;;;;2.60;2.00;;;24.00;99.90;;;;;;6188378;23;20159;-85
2023/08/31 10:41:15;;;;;;;5.20;2.43;;;23.50;99.90;;;;;;6189870;23;20229;-84
2023/08/31 10:43:57;;;;;;;2.70;2.03;;;23.00;99.90;;;;;;6162679;23;20259;-78
2023/08/31 10:46:35;;;;;;;3.50;2.00;;;23.20;99.90;;;;;;6213782;23;20265;-80
2023/08/31 10:49:14;;;;;;;4.40;2.30;;;23.30;99.90;;;;;;6187798;23;20171;-81
2023/08/31 10:51:52;;;;;;;4.40;2.17;;;23.00;99.90;;;;;;6213412;23;20264;-82
2023/08/31 10:54:40;;;;;;;4.03;2.27;;;22.80;99.90;;;;;;6182304;23;20587;-80
2023/08/31 10:57:12;;;;;;;2.53;2.03;;;22.60;99.90;;;;;;6161344;23;20202;-81
2023/08/31 10:59:55;;;;;;;3.73;2.40;;;22.50;99.90;;;;;;6186696;23;20167;-80
2023/08/31 11:02:43;;;;;;;5.00;2.63;;;22.40;99.90;;;;;;6187322;23;20241;-81
2023/08/31 11:05:24;;;;;;;3.83;2.00;;;22.20;99.90;;;;;;6186737;23;20199;-82
2023/08/31 11:07:53;;;;;;;5.67;2.50;;;22.20;99.90;;;;;;6187729;23;20167;-82
2023/08/31 11:10:31;;;;;;;4.27;2.10;;;22.10;99.90;;;;;;6187440;23;20175;-84
2023/08/31 11:13:19;;;;;;;3.77;2.10;;;22.30;99.90;;;;;;6185856;23;20258;-81
2023/08/31 11:16:00;;;;;;;2.97;2.40;;;22.30;99.90;;;;;;6163658;23;20251;-82
2023/08/31 11:18:49;;;;;;;4.10;2.00;;;22.20;99.90;;;;;;6191544;23;20179;-84
2023/08/31 11:21:37;;;;;;;4.07;2.20;;;22.60;99.90;;;;;;6188016;23;20191;-81
2023/08/31 11:24:25;;;;;;;;;;;;;;;;;;;;;
2023/08/31 11:27:11;;;;;;;4.87;2.47;;;23.10;99.90;;;;;;6187514;23;20199;-83
2023/08/31 11:29:48;;;;;;;3.70;2.37;;;23.20;99.90;;;;;;6213998;23;20166;-81
2023/08/31 11:32:18;;;;;;;4.17;2.40;;;23.30;99.90;;;;;;6164222;23;20197;-80
2023/08/31 11:34:54;;;;;;;4.00;2.53;;;23.40;99.90;;;;;;6214395;23;20151;-80
2023/08/31 11:37:38;;;;;;;6.00;3.07;;;24.10;99.90;;;;;;6187855;23;20202;-81
2023/08/31 11:40:14;;;;;;;5.47;2.90;;;24.60;99.90;;;;;;6213666;23;20258;-80
2023/08/31 11:42:45;;;;;;;2.73;2.40;;;24.10;99.90;;;;;;6214341;23;20170;-81
2023/08/31 11:45:22;;;;;;;4.23;2.90;;;24.20;99.90;;;;;;6189959;23;20181;-79
2023/08/31 11:48:00;;;;;;;4.57;2.97;;;24.40;99.90;;;;;;6213355;23;20182;-78
2023/08/31 11:50:34;;;;;;;3.70;2.87;;;24.20;99.90;;;;;;6214664;23;20269;-78
2023/08/31 11:53:13;;;;;;;3.80;2.75;;;24.10;99.90;;;;;;6191064;23;20167;-74
2023/08/31 11:56:08;;;;;;;3.37;2.50;;;24.70;99.90;;;;;;6214256;23;20615;-80
2023/08/31 11:58:50;;;;;;;11.60;4.00;;;24.70;99.90;;;;;;6187198;23;20237;-80
2023/08/31 12:01:33;;;;;;;3.22;2.53;;;25.60;99.90;;;;;;6165175;23;20181;-81
2023/08/31 12:04:09;;;;;;;4.72;2.83;;;25.50;99.90;;;;;;6187319;23;20167;-80
2023/08/31 12:06:51;;;;;;;4.82;2.55;;;25.60;99.90;;;;;;6187001;23;20265;-85
2023/08/31 12:09:27;;;;;;;3.33;2.85;;;25.40;99.90;;;;;;6212748;23;20290;-79
2023/08/31 12:12:04;;;;;;;4.50;2.67;;;25.60;99.90;;;;;;6187722;23;20253;-78
2023/08/31 12:14:46;;;;;;;3.40;2.95;;;25.60;99.90;;;;;;6214347;23;20214;-77
2023/08/31 12:17:19;;;;;;;4.03;2.70;;;24.30;99.90;;;;;;6213439;23;20554;-80
2023/08/31 12:20:06;;;;;;;3.10;2.50;;;25.00;99.90;;;;;;6210592;23;20175;-80
2023/08/31 12:22:37;;;;;;;3.88;2.55;;;25.40;99.90;;;;;;6185986;23;20646;-81
2023/08/31 12:25:05;;;;;;;3.92;2.63;;;25.60;99.90;;;;;;6160975;23;20221;-80
2023/08/31 12:27:37;;;;;;;3.60;2.60;;;25.20;99.90;;;;;;6214021;23;20269;-83
2023/08/31 12:30:09;;;;;;;4.13;3.00;;;25.30;99.90;;;;;;6188454;23;20217;-82
2023/08/31 12:32:40;;;;;;;4.40;2.80;;;25.50;99.90;;;;;;6214280;23;20175;-81
2023/08/31 12:35:09;;;;;;;4.25;2.85;;;25.90;99.90;;;;;;6214060;23;20167;-81
2023/08/31 12:37:43;;;;;;;3.45;2.65;;;25.90;99.90;;;;;;6210595;23;20641;-82
2023/08/31 12:40:19;;;;;;;2.75;2.40;;;25.90;99.90;;;;;;6214126;23;20186;-83
2023/08/31 12:42:47;;;;;;;4.55;2.78;;;25.60;99.90;;;;;;6214132;23;20221;-81
2023/08/31 12:45:24;;;;;;;4.72;3.10;;;25.20;99.90;;;;;;6185430;23;20167;-81
2023/08/31 12:48:04;;;;;;;3.35;2.67;;;24.90;99.90;;;;;;6213394;23;20147;-79
2023/08/31 12:50:32;;;;;;;3.38;2.88;;;25.00;99.90;;;;;;6187655;23;20245;-79
2023/08/31 12:53:10;;;;;;;5.47;3.05;;;25.10;99.90;;;;;;6213635;23;20169;-78
2023/08/31 12:55:38;;;;;;;2.92;2.58;;;25.00;99.90;;;;;;6213695;23;20177;-77
2023/08/31 12:58:09;;;;;;;3.70;3.00;;;25.20;99.90;;;;;;6186355;23;20551;-78
2023/08/31 13:00:59;;;;;;;3.92;3.00;;;25.10;99.90;;;;;;6213980;23;20159;-79
2023/08/31 13:33:53;;;;;;;2.85;2.58;;;24.40;99.90;;;;;;6231714;22;20209;-80
2023/08/31 13:36:23;;;;;;;3.03;2.72;;;24.10;99.90;;;;;;6243685;23;20213;-78
2023/08/31 13:44:16;;;;;;;4.13;2.80;;;23.70;99.90;;;;;;6176363;22;20191;-82
2023/08/31 14:38:49;;;;;;;6.17;3.10;;;19.50;99.90;;;;;;6199315;22;20236;-88
2023/08/31 15:02:04;;;;;;;7.60;5.70;;;15.80;99.90;;;;;;6197251;22;20209;-83
2023/08/31 15:05:10;;;;;;;8.90;7.00;;;15.60;99.90;;;;;;6199951;23;20166;-80
2023/08/31 15:07:45;;;;;;;12.20;7.87;;;15.50;99.90;;;;;;6244357;23;20601;-76
2023/08/31 15:10:13;;;;;;;10.13;7.53;;;15.60;99.90;;;;;;6245422;23;20598;-82
2023/08/31 15:12:40;;;;;;;10.30;8.33;;;15.70;99.90;;;;;;6245263;23;20590;-83
2023/08/31 15:15:10;;;;;;;11.80;8.43;;;15.70;99.90;;;;;;6218361;23;20203;-76
2023/08/31 15:17:38;;;;;;;13.23;9.03;;;15.80;99.90;;;;;;6243319;23;20269;-78
2023/08/31 15:20:08;;;;;;;12.43;9.77;;;15.90;99.90;;;;;;6244808;22;20162;-78
2023/08/31 15:22:49;;;;;;;16.47;9.97;;;16.00;99.90;;;;;;6245376;23;20190;-79
2023/08/31 15:25:18;;;;;;;12.77;9.50;;;16.10;99.90;;;;;;6217218;23;20539;-81
2023/08/31 15:27:46;;;;;;;13.07;9.50;;;16.20;99.90;;;;;;6245120;23;20598;-81
2023/08/31 15:30:15;;;;;;;16.40;10.57;;;16.20;99.90;;;;;;6218936;23;20224;-81
2023/08/31 15:32:43;;;;;;;11.80;10.13;;;16.40;99.90;;;;;;6245092;23;20159;-78
2023/08/31 15:35:16;;;;;;;13.40;10.23;;;16.40;99.90;;;;;;6216320;22;20481;-78
2023/08/31 15:38:10;;;;;;;13.43;11.00;;;16.40;99.90;;;;;;6218074;23;20196;-79
2023/08/31 15:40:48;;;;;;;14.27;11.00;;;16.30;99.90;;;;;;6245393;23;20624;-79
2023/08/31 15:43:18;;;;;;;15.37;12.17;;;16.30;99.90;;;;;;6245294;23;20166;-76
2023/08/31 15:45:48;;;;;;;15.03;11.87;;;16.40;99.90;;;;;;6245019;23;20173;-78
2023/08/31 15:48:16;;;;;;;16.60;11.80;;;16.50;99.90;;;;;;6217938;23;20249;-79
2023/08/31 15:50:45;;;;;;;14.67;11.50;;;16.50;99.90;;;;;;6193954;23;20186;-79
2023/08/31 15:53:16;;;;;;;14.07;11.27;;;16.50;99.90;;;;;;6245125;23;20613;-79
2023/08/31 15:55:49;;;;;;;14.60;11.00;;;16.60;99.90;;;;;;6218199;23;20167;-79
2023/08/31 15:58:20;;;;;;;15.07;10.77;;;16.60;99.90;;;;;;6192632;23;20494;-77
2023/08/31 16:00:49;;;;;;;13.67;11.43;;;16.60;99.90;;;;;;6217945;23;20162;-78
2023/08/31 22:54:55;;;;;;;8.60;4.70;;;13.20;99.90;;;;;;6141898;23;20195;-78
2023/08/31 22:57:28;;;;;;;7.07;4.70;;;13.20;99.90;;;;;;6157156;23;20195;-81
2023/08/31 22:59:56;;;;;;;9.33;4.47;;;13.10;99.90;;;;;;6159024;23;20168;-81
2023/08/31 23:02:23;;;;;;;7.67;4.03;;;13.20;99.90;;;;;;6184681;23;20164;-81
2023/08/31 23:04:51;;;;;;;7.67;4.73;;;13.20;99.90;;;;;;6183755;23;20168;-79
2023/08/31 23:07:19;;;;;;;6.73;4.60;;;13.20;99.90;;;;;;6104633;23;20200;-79
2023/08/31 23:09:47;;;;;;;6.63;4.43;;;13.10;99.90;;;;;;6128691;23;20172;-81
2023/08/31 23:12:16;;;;;;;8.30;4.70;;;13.10;99.90;;;;;;6129727;23;20211;-81
2023/08/31 23:14:44;;;;;;;9.93;4.50;;;13.10;99.90;;;;;;6152451;23;20169;-81
2023/08/31 23:17:13;;;;;;;7.13;4.60;;;13.20;99.90;;;;;;6129156;23;20196;-80